Time;durP1;ratioP1;P1;durP2;ratioP2;P2;SDS_P1;SDS_P2;PMS_P1;PMS_P2;Temp;Humidity;BMP_temperature;BMP_pressure;BME280_temperature;BME280_humidity;BME280_pressure;Samples;Min_cycle;Max_cycle;Signal;HPM_P1;HPM_P2
2023/01/21 00:01:05;;;;;;;27.87;20.13;;;2.00;99.90;;;;;;5059170;28;20625;-82
2023/01/21 00:03:33;;;;;;;29.57;20.10;;;2.10;99.90;;;;;;5062782;28;20165;-82
2023/01/21 00:05:58;;;;;;;25.63;17.53;;;2.00;99.90;;;;;;5067429;28;20236;-83
2023/01/21 00:08:25;;;;;;;23.93;16.37;;;2.00;99.90;;;;;;5066637;28;20199;-82
2023/01/21 00:10:51;;;;;;;29.47;20.27;;;1.90;99.90;;;;;;5064803;28;20175;-82
2023/01/21 00:13:16;;;;;;;32.47;20.53;;;2.00;99.90;;;;;;5064858;28;20240;-83
2023/01/21 00:15:44;;;;;;;29.90;20.57;;;1.80;99.90;;;;;;5067247;28;20264;-81
2023/01/21 00:18:11;;;;;;;26.77;19.00;;;1.80;99.90;;;;;;5070230;28;20177;-83
2023/01/21 00:20:38;;;;;;;23.03;17.40;;;2.00;99.90;;;;;;5074121;28;20173;-82
2023/01/21 00:23:03;;;;;;;26.53;18.10;;;1.70;99.90;;;;;;5071320;28;20621;-83
2023/01/21 00:25:29;;;;;;;26.87;18.93;;;1.70;99.90;;;;;;5065538;28;20180;-86
2023/01/21 00:27:55;;;;;;;27.77;20.07;;;1.80;99.90;;;;;;5060595;28;20184;-85
2023/01/21 00:30:21;;;;;;;28.80;19.70;;;1.70;99.90;;;;;;5067259;28;20165;-82
2023/01/21 00:32:47;;;;;;;31.10;21.53;;;1.70;99.90;;;;;;5079173;28;20232;-85
2023/01/21 00:35:15;;;;;;;24.57;16.70;;;1.60;99.90;;;;;;5078966;28;20177;-82
2023/01/21 00:37:43;;;;;;;30.10;21.57;;;1.60;99.90;;;;;;5051243;28;20323;-82
2023/01/21 00:40:12;;;;;;;31.57;21.80;;;1.60;99.90;;;;;;5058029;28;20191;-83
2023/01/21 00:42:41;;;;;;;30.03;20.83;;;1.60;99.90;;;;;;5057136;28;20169;-83
2023/01/21 00:45:07;;;;;;;31.70;21.63;;;1.70;99.90;;;;;;5056651;28;20173;-83
2023/01/21 00:47:33;;;;;;;34.10;23.33;;;1.60;99.90;;;;;;5067453;28;20168;-83
2023/01/21 00:50:00;;;;;;;30.73;21.10;;;1.50;99.90;;;;;;5077881;28;20229;-81
2023/01/21 00:52:25;;;;;;;31.53;19.87;;;1.50;99.90;;;;;;5075285;28;20177;-83
2023/01/21 00:54:52;;;;;;;30.67;20.50;;;1.50;99.90;;;;;;5061441;28;20712;-83
2023/01/21 00:57:18;;;;;;;31.67;22.37;;;1.50;99.90;;;;;;5055895;28;20231;-82
2023/01/21 00:59:45;;;;;;;31.27;19.83;;;1.60;99.90;;;;;;5056114;28;20169;-87
2023/01/21 01:02:11;;;;;;;32.67;20.73;;;1.50;99.90;;;;;;5055454;28;20173;-83
2023/01/21 01:04:38;;;;;;;32.50;21.90;;;1.40;99.90;;;;;;5056010;28;20173;-87
2023/01/21 01:07:07;;;;;;;37.63;26.17;;;1.40;99.90;;;;;;5054559;28;20185;-84
2023/01/21 01:09:33;;;;;;;37.00;23.00;;;1.50;99.90;;;;;;5057387;28;20172;-83
2023/01/21 01:11:58;;;;;;;32.50;22.23;;;1.40;99.90;;;;;;5055765;28;20525;-86
2023/01/21 01:14:24;;;;;;;33.27;22.70;;;1.30;99.90;;;;;;5055305;28;20519;-82
2023/01/21 01:16:52;;;;;;;34.53;23.83;;;1.30;99.90;;;;;;5056816;28;20564;-84
2023/01/21 01:19:18;;;;;;;33.33;23.37;;;1.30;99.90;;;;;;5056894;28;20644;-87
2023/01/21 01:21:43;;;;;;;32.83;20.13;;;1.30;99.90;;;;;;5055487;28;20176;-88
2023/01/21 01:24:09;;;;;;;31.77;17.70;;;1.20;99.90;;;;;;5057432;28;20262;-83
2023/01/21 01:26:35;;;;;;;31.87;21.90;;;1.20;99.90;;;;;;5062630;28;20187;-85
2023/01/21 01:29:04;;;;;;;33.67;20.33;;;1.20;99.90;;;;;;5063377;28;20193;-86
2023/01/21 01:31:31;;;;;;;34.03;21.07;;;1.10;99.90;;;;;;5054774;28;20690;-86
2023/01/21 01:33:57;;;;;;;31.17;19.20;;;1.20;99.90;;;;;;5056377;28;20181;-84
2023/01/21 01:36:23;;;;;;;36.33;23.17;;;1.10;99.90;;;;;;5054534;28;20209;-85
2023/01/21 01:38:49;;;;;;;32.70;22.53;;;1.10;99.90;;;;;;5054837;28;20176;-86
2023/01/21 01:41:18;;;;;;;38.73;23.47;;;1.10;99.90;;;;;;5037491;28;20657;-84
2023/01/21 01:43:49;;;;;;;35.83;22.03;;;1.10;99.90;;;;;;5053644;28;20531;-90
2023/01/21 01:46:15;;;;;;;37.07;24.63;;;1.10;99.90;;;;;;5054254;28;20215;-86
2023/01/21 01:48:43;;;;;;;39.10;25.47;;;1.10;99.90;;;;;;5053476;28;20629;-89
2023/01/21 01:51:10;;;;;;;36.10;25.97;;;1.10;99.90;;;;;;5065654;28;20207;-82
2023/01/21 01:53:41;;;;;;;34.13;22.47;;;1.10;99.90;;;;;;5067530;28;20192;-83
2023/01/21 01:56:08;;;;;;;38.47;24.83;;;1.10;99.90;;;;;;5056076;28;20651;-87
2023/01/21 01:58:35;;;;;;;37.67;24.10;;;1.00;99.90;;;;;;5055058;28;20655;-87
2023/01/21 02:01:00;;;;;;;36.77;24.23;;;1.00;99.90;;;;;;5054874;28;20172;-89
2023/01/21 02:03:43;;;;;;;36.73;24.50;;;1.00;99.90;;;;;;5055268;28;20706;-85
2023/01/21 02:06:13;;;;;;;36.57;23.13;;;1.00;99.90;;;;;;5053842;28;20181;-82
2023/01/21 02:08:41;;;;;;;41.50;25.67;;;1.00;99.90;;;;;;5052863;28;20303;-84
2023/01/21 02:11:14;;;;;;;39.13;24.20;;;1.00;99.90;;;;;;5052244;28;20177;-82
2023/01/21 02:13:43;;;;;;;37.93;24.67;;;1.00;99.90;;;;;;5051895;28;20165;-82
2023/01/21 02:16:29;;;;;;;36.70;23.27;;;1.10;99.90;;;;;;5052555;28;20213;-82
2023/01/21 02:19:25;;;;;;;38.80;24.47;;;1.00;99.90;;;;;;5053423;28;20195;-83
2023/01/21 02:22:09;;;;;;;41.20;25.07;;;1.10;99.90;;;;;;5052392;28;20539;-84
2023/01/21 02:25:10;;;;;;;37.43;24.30;;;1.00;99.90;;;;;;5053302;28;20252;-83
2023/01/21 02:28:12;;;;;;;44.13;26.23;;;1.00;99.90;;;;;;5054323;28;20240;-84
2023/01/21 02:31:07;;;;;;;37.47;22.20;;;1.00;99.90;;;;;;5010445;28;20176;-82
2023/01/21 02:33:58;;;;;;;40.87;24.73;;;1.00;99.90;;;;;;5057603;28;20177;-81
2023/01/21 02:36:34;;;;;;;40.90;25.43;;;0.90;99.90;;;;;;5069837;28;20200;-82
2023/01/21 02:39:38;;;;;;;39.40;24.53;;;0.80;99.90;;;;;;5073152;28;20176;-82
2023/01/21 02:42:23;;;;;;;40.30;25.13;;;0.80;99.90;;;;;;4999081;28;20175;-82
2023/01/21 02:45:16;;;;;;;43.60;27.27;;;0.90;99.90;;;;;;5059769;28;20636;-83
2023/01/21 02:47:50;;;;;;;41.10;25.77;;;0.80;99.90;;;;;;5065529;28;20153;-83
2023/01/21 02:50:22;;;;;;;45.13;28.17;;;0.80;99.90;;;;;;5068144;28;20183;-82
2023/01/21 02:52:58;;;;;;;47.67;28.70;;;0.90;99.90;;;;;;5065530;28;20169;-82
2023/01/21 02:55:37;;;;;;;45.67;28.93;;;0.90;99.90;;;;;;5070827;28;20222;-84
2023/01/21 02:58:14;;;;;;;44.37;27.27;;;0.90;99.90;;;;;;5071372;28;20227;-82
2023/01/21 03:01:14;;;;;;;47.00;28.30;;;0.90;99.90;;;;;;5063287;28;20191;-82
2023/01/21 03:04:09;;;;;;;43.77;27.93;;;0.80;99.90;;;;;;5067927;28;20169;-84
2023/01/21 03:06:51;;;;;;;48.60;28.80;;;0.80;99.90;;;;;;5072008;28;20557;-82
2023/01/21 03:09:33;;;;;;;46.60;28.20;;;0.80;99.90;;;;;;5056913;28;20620;-82
2023/01/21 03:12:26;;;;;;;44.27;26.47;;;0.80;99.90;;;;;;5055505;28;20204;-83
2023/01/21 03:18:30;;;;;;;43.53;25.87;;;0.90;99.90;;;;;;5058748;28;20187;-81
2023/01/21 03:21:00;;;;;;;46.03;25.67;;;0.80;99.90;;;;;;5063042;28;20207;-83
2023/01/21 03:23:31;;;;;;;41.23;24.97;;;0.80;99.90;;;;;;5066126;28;20200;-83
2023/01/21 03:25:58;;;;;;;46.67;29.77;;;0.70;99.90;;;;;;5075951;28;20173;-83
2023/01/21 03:28:28;;;;;;;44.33;28.37;;;0.70;99.90;;;;;;5064554;28;20196;-82
2023/01/21 03:31:36;;;;;;;48.47;30.73;;;0.70;99.90;;;;;;5061701;28;20165;-84
2023/01/21 03:34:12;;;;;;;46.57;28.13;;;0.80;99.90;;;;;;5047252;28;20560;-85
2023/01/21 03:36:45;;;;;;;45.43;28.20;;;0.70;99.90;;;;;;5057765;28;20204;-86
2023/01/21 03:39:19;;;;;;;51.63;30.70;;;0.70;99.90;;;;;;5057697;28;20177;-82
2023/01/21 03:41:45;;;;;;;49.90;30.17;;;0.70;99.90;;;;;;5055845;28;20176;-85
2023/01/21 03:44:11;;;;;;;48.97;30.20;;;0.70;99.90;;;;;;5057396;28;20183;-88
2023/01/21 03:46:43;;;;;;;46.10;29.23;;;0.70;99.90;;;;;;5055839;28;20223;-83
2023/01/21 03:49:28;;;;;;;47.80;27.77;;;0.70;99.90;;;;;;5057171;28;20188;-89
2023/01/21 03:51:56;;;;;;;42.10;25.47;;;0.70;99.90;;;;;;5056296;28;20521;-86
2023/01/21 03:54:22;;;;;;;46.20;28.10;;;0.60;99.90;;;;;;5055399;28;20767;-83
2023/01/21 03:56:48;;;;;;;48.33;28.20;;;0.60;99.90;;;;;;5057282;28;20258;-81
2023/01/21 03:59:17;;;;;;;54.13;30.63;;;0.60;99.90;;;;;;5057578;28;20185;-85
2023/01/21 04:01:42;;;;;;;53.33;30.03;;;0.60;99.90;;;;;;5074422;28;20172;-81
2023/01/21 04:04:09;;;;;;;58.27;27.97;;;0.60;99.90;;;;;;5079464;28;20177;-81
2023/01/21 04:06:35;;;;;;;49.60;30.67;;;0.60;99.90;;;;;;5080198;28;20165;-82
2023/01/21 04:09:02;;;;;;;48.70;29.00;;;0.60;99.90;;;;;;5079372;28;20180;-82
2023/01/21 04:11:30;;;;;;;51.00;30.77;;;0.60;99.90;;;;;;5072296;28;20185;-84
2023/01/21 04:13:58;;;;;;;51.97;29.07;;;0.60;99.90;;;;;;5070160;28;20169;-85
2023/01/21 04:16:29;;;;;;;51.13;28.03;;;0.50;99.90;;;;;;5063017;28;20207;-86
2023/01/21 04:18:56;;;;;;;51.30;28.90;;;0.50;99.90;;;;;;5061606;28;20195;-83
2023/01/21 04:21:22;;;;;;;52.80;29.17;;;0.60;99.90;;;;;;5057063;28;20195;-86
2023/01/21 04:23:47;;;;;;;49.10;28.87;;;0.60;99.90;;;;;;5056575;28;20173;-84
2023/01/21 04:26:15;;;;;;;46.93;28.63;;;0.60;99.90;;;;;;5056644;28;20206;-86
2023/01/21 04:28:42;;;;;;;48.97;30.27;;;0.60;99.90;;;;;;5053848;28;20527;-82
2023/01/21 04:31:08;;;;;;;52.20;28.23;;;0.70;99.90;;;;;;5053785;28;20181;-82
2023/01/21 04:33:33;;;;;;;53.07;31.07;;;0.70;99.90;;;;;;5054064;28;20169;-81
2023/01/21 04:35:59;;;;;;;46.90;27.77;;;0.50;99.90;;;;;;5054329;28;20559;-82
2023/01/21 04:38:26;;;;;;;46.00;27.73;;;0.50;99.90;;;;;;5053417;28;20177;-82
2023/01/21 04:40:53;;;;;;;45.30;27.03;;;0.50;99.90;;;;;;5054071;28;20230;-81
2023/01/21 04:43:19;;;;;;;47.50;29.13;;;0.40;99.90;;;;;;5053869;28;20658;-81
2023/01/21 04:45:45;;;;;;;50.53;28.63;;;0.40;99.90;;;;;;5053650;28;20252;-82
2023/01/21 04:48:10;;;;;;;51.47;29.37;;;0.40;99.90;;;;;;5055524;28;20177;-81
2023/01/21 04:50:36;;;;;;;50.53;28.13;;;0.50;99.90;;;;;;5074472;28;20177;-82
2023/01/21 04:53:02;;;;;;;52.07;30.37;;;0.40;99.90;;;;;;5053472;28;20176;-82
2023/01/21 04:55:28;;;;;;;56.07;30.10;;;0.40;99.90;;;;;;5053671;28;20247;-82
2023/01/21 04:57:53;;;;;;;49.57;30.50;;;0.40;99.90;;;;;;5054589;28;20335;-82
2023/01/21 05:00:19;;;;;;;51.63;30.13;;;0.50;99.90;;;;;;5059919;28;20165;-82
2023/01/21 05:02:45;;;;;;;51.10;28.67;;;0.40;99.90;;;;;;5055148;28;20173;-81
2023/01/21 05:05:10;;;;;;;49.97;30.10;;;0.40;99.90;;;;;;5059557;28;20183;-82
2023/01/21 05:07:36;;;;;;;51.07;30.17;;;0.50;99.90;;;;;;5076910;28;20188;-82
2023/01/21 05:10:02;;;;;;;47.23;26.93;;;0.30;99.90;;;;;;5057675;28;20177;-82
2023/01/21 05:12:28;;;;;;;52.73;28.47;;;0.40;99.90;;;;;;5053772;28;20682;-82
2023/01/21 05:14:56;;;;;;;49.93;29.13;;;0.30;99.90;;;;;;5053531;28;20176;-82
2023/01/21 05:17:22;;;;;;;53.40;30.60;;;0.30;99.90;;;;;;5052977;28;20319;-83
2023/01/21 05:19:49;;;;;;;48.63;29.10;;;0.40;99.90;;;;;;5053749;28;20169;-82
2023/01/21 05:22:16;;;;;;;46.40;25.70;;;0.30;99.90;;;;;;5065086;28;20180;-82
2023/01/21 05:24:41;;;;;;;51.87;29.53;;;0.40;99.90;;;;;;5075070;28;20173;-83
2023/01/21 05:27:07;;;;;;;57.27;31.60;;;0.40;99.90;;;;;;5055474;28;20165;-82
2023/01/21 05:29:34;;;;;;;56.93;32.17;;;0.30;99.90;;;;;;5053220;28;20264;-81
2023/01/21 05:32:00;;;;;;;53.37;31.10;;;0.50;99.90;;;;;;5052654;28;20177;-83
2023/01/21 05:34:25;;;;;;;54.33;31.73;;;0.40;99.90;;;;;;5052773;28;20682;-83
2023/01/21 05:36:51;;;;;;;53.83;32.40;;;0.30;99.90;;;;;;5053301;28;20711;-82
2023/01/21 05:39:16;;;;;;;58.23;34.23;;;0.40;99.90;;;;;;5052762;28;20531;-82
2023/01/21 05:41:42;;;;;;;56.27;31.47;;;0.40;99.90;;;;;;5052842;28;20629;-83
2023/01/21 05:44:08;;;;;;;55.87;31.03;;;0.30;99.90;;;;;;5053897;28;20176;-82
2023/01/21 05:46:34;;;;;;;52.20;31.10;;;0.30;99.90;;;;;;5052476;28;20181;-82
2023/01/21 05:49:00;;;;;;;52.27;30.13;;;0.30;99.90;;;;;;5052767;28;20183;-83
2023/01/21 05:51:27;;;;;;;50.83;30.13;;;0.30;99.90;;;;;;5053300;28;20560;-82
2023/01/21 05:53:54;;;;;;;48.90;28.20;;;0.30;99.90;;;;;;5052804;28;20169;-82
2023/01/21 05:56:20;;;;;;;51.53;30.03;;;0.30;99.90;;;;;;5052331;28;20213;-81
2023/01/21 05:58:45;;;;;;;55.30;30.17;;;0.20;99.90;;;;;;5054331;28;20517;-81
2023/01/21 06:01:11;;;;;;;57.47;34.07;;;0.20;99.90;;;;;;5051975;28;20177;-82
2023/01/21 06:03:37;;;;;;;53.93;29.90;;;0.20;99.90;;;;;;5054035;28;20169;-81
2023/01/21 06:06:03;;;;;;;61.67;32.27;;;0.20;99.90;;;;;;5036247;28;20212;-81
2023/01/21 06:08:28;;;;;;;54.93;32.30;;;0.20;99.90;;;;;;5052339;28;20193;-83
2023/01/21 06:10:57;;;;;;;55.37;32.57;;;0.20;99.90;;;;;;5054516;28;20220;-82
2023/01/21 06:13:23;;;;;;;56.97;34.80;;;0.20;99.90;;;;;;5053729;28;20180;-82
2023/01/21 06:15:52;;;;;;;56.83;31.73;;;0.20;99.90;;;;;;5054370;28;20180;-82
2023/01/21 06:18:19;;;;;;;56.70;33.73;;;0.20;99.90;;;;;;5055717;28;20189;-85
2023/01/21 06:20:44;;;;;;;63.37;33.40;;;0.20;99.90;;;;;;5055568;28;20183;-81
2023/01/21 06:23:10;;;;;;;59.73;33.87;;;0.20;99.90;;;;;;5056130;28;20518;-86
2023/01/21 06:25:36;;;;;;;58.63;34.17;;;0.20;99.90;;;;;;5058904;28;20222;-86
2023/01/21 06:28:02;;;;;;;59.47;33.97;;;0.20;99.90;;;;;;5058933;28;20169;-85
2023/01/21 06:30:28;;;;;;;56.73;33.47;;;0.20;99.90;;;;;;5067643;28;20204;-86
2023/01/21 06:32:53;;;;;;;61.80;33.80;;;0.20;99.90;;;;;;5071022;28;20165;-81
2023/01/21 06:35:19;;;;;;;64.87;33.37;;;0.10;99.90;;;;;;5075322;28;20173;-81
2023/01/21 06:37:46;;;;;;;57.70;29.40;;;0.10;99.90;;;;;;5074065;28;20197;-81
2023/01/21 06:40:12;;;;;;;62.67;37.27;;;0.10;99.90;;;;;;5073012;28;20176;-83
2023/01/21 06:42:38;;;;;;;60.07;35.00;;;0.10;99.90;;;;;;5075964;28;20165;-83
2023/01/21 06:45:04;;;;;;;57.70;31.90;;;0.30;99.90;;;;;;5074405;28;20196;-82
2023/01/21 06:47:31;;;;;;;61.77;33.93;;;0.20;99.90;;;;;;5071332;28;20173;-86
2023/01/21 06:49:56;;;;;;;56.63;34.77;;;0.10;99.90;;;;;;5063262;28;20169;-84
2023/01/21 06:52:23;;;;;;;58.77;35.03;;;0.10;99.90;;;;;;5057248;28;20173;-87
2023/01/21 06:54:49;;;;;;;58.00;33.00;;;0.20;99.90;;;;;;5056852;28;20193;-88
2023/01/21 06:57:14;;;;;;;60.63;33.13;;;0.20;99.90;;;;;;5058494;28;20547;-81
2023/01/21 06:59:40;;;;;;;65.33;34.50;;;0.00;99.90;;;;;;5062101;28;20610;-82
2023/01/21 07:02:11;;;;;;;58.90;34.57;;;0.20;99.90;;;;;;5070153;28;20177;-80
2023/01/21 07:04:37;;;;;;;38.40;23.13;;;0.10;99.90;;;;;;5068897;28;20165;-80
2023/01/21 07:07:02;;;;;;;47.80;24.90;;;0.10;99.90;;;;;;5077444;28;20208;-80
2023/01/21 07:09:28;;;;;;;56.27;32.23;;;0.00;99.90;;;;;;5059896;28;20160;-82
2023/01/21 07:11:54;;;;;;;54.17;31.23;;;-0.10;99.90;;;;;;5056383;28;20175;-82
2023/01/21 07:14:20;;;;;;;54.37;30.33;;;-0.10;99.90;;;;;;5055762;28;20244;-82
2023/01/21 07:16:45;;;;;;;58.30;34.20;;;-0.10;99.90;;;;;;5056680;28;20204;-83
2023/01/21 07:19:11;;;;;;;61.83;33.20;;;-0.10;99.90;;;;;;5056015;28;20227;-82
2023/01/21 07:21:40;;;;;;;54.33;31.13;;;-0.10;99.90;;;;;;5059460;28;20173;-82
2023/01/21 07:24:06;;;;;;;57.73;32.90;;;-0.10;99.90;;;;;;5077351;28;20268;-81
2023/01/21 07:26:36;;;;;;;57.77;32.23;;;-0.20;99.90;;;;;;5067277;28;20259;-81
2023/01/21 07:29:05;;;;;;;56.37;31.73;;;-0.20;99.90;;;;;;5057057;28;20173;-83
2023/01/21 07:31:34;;;;;;;57.17;32.47;;;-0.10;99.90;;;;;;5056114;28;20223;-84
2023/01/21 07:34:00;;;;;;;61.63;34.87;;;-0.20;99.90;;;;;;5066078;28;20196;-81
2023/01/21 07:36:26;;;;;;;56.37;32.83;;;-0.20;99.90;;;;;;5074158;28;20199;-80
2023/01/21 07:38:52;;;;;;;56.90;33.37;;;-0.20;99.90;;;;;;5068895;28;20165;-81
2023/01/21 07:41:18;;;;;;;59.90;33.70;;;-0.20;99.90;;;;;;5069933;28;20192;-81
2023/01/21 07:43:46;;;;;;;56.43;30.87;;;-0.20;99.90;;;;;;5066675;28;20185;-82
2023/01/21 07:46:18;;;;;;;56.97;33.00;;;-0.20;99.90;;;;;;5064107;28;20187;-82
2023/01/21 07:48:50;;;;;;;54.13;31.63;;;-0.20;99.90;;;;;;5064563;28;20188;-83
2023/01/21 07:51:20;;;;;;;51.13;29.33;;;-0.20;99.90;;;;;;5065888;28;20188;-82
2023/01/21 07:53:47;;;;;;;63.47;34.33;;;0.00;99.90;;;;;;5064207;28;20192;-82
2023/01/21 07:56:15;;;;;;;59.60;33.63;;;-0.10;99.90;;;;;;5062746;28;20193;-82
2023/01/21 07:58:40;;;;;;;51.23;26.17;;;-0.10;99.90;;;;;;5059309;28;20175;-82
2023/01/21 08:01:08;;;;;;;58.27;31.90;;;-0.20;99.90;;;;;;5060179;28;20184;-81
2023/01/21 08:03:36;;;;;;;63.50;33.17;;;-0.20;99.90;;;;;;5079135;28;20177;-80
2023/01/21 08:06:05;;;;;;;64.60;34.83;;;-0.10;99.90;;;;;;5063732;28;20256;-83
2023/01/21 08:08:33;;;;;;;62.73;33.70;;;-0.20;99.90;;;;;;5058255;28;20230;-82
2023/01/21 08:10:59;;;;;;;61.97;35.20;;;-0.10;99.90;;;;;;5055658;28;20652;-83
2023/01/21 08:13:30;;;;;;;60.13;33.93;;;0.00;99.90;;;;;;5056289;28;20180;-84
2023/01/21 08:15:56;;;;;;;64.03;35.77;;;0.00;99.90;;;;;;5055096;28;20227;-83
2023/01/21 08:18:22;;;;;;;59.10;34.23;;;0.00;99.90;;;;;;5054292;28;20437;-82
2023/01/21 08:20:53;;;;;;;59.53;33.97;;;0.00;99.90;;;;;;5055492;28;20553;-83
2023/01/21 08:23:19;;;;;;;58.63;31.90;;;-0.10;99.90;;;;;;5062246;28;20177;-83
2023/01/21 08:25:45;;;;;;;61.87;34.70;;;0.00;99.90;;;;;;5065192;28;20177;-82
2023/01/21 08:28:11;;;;;;;61.70;34.83;;;0.00;99.90;;;;;;5055513;28;20196;-82
2023/01/21 08:30:37;;;;;;;56.03;32.00;;;0.00;99.90;;;;;;5054979;28;20173;-84
2023/01/21 08:33:02;;;;;;;57.77;34.10;;;0.00;99.90;;;;;;5056190;28;20157;-82
2023/01/21 08:35:29;;;;;;;58.63;31.77;;;0.00;99.90;;;;;;5034426;28;20754;-85
2023/01/21 08:37:56;;;;;;;54.80;31.30;;;0.00;99.90;;;;;;5050442;28;20204;-85
2023/01/21 08:40:25;;;;;;;60.67;34.13;;;0.00;99.90;;;;;;5051466;28;20578;-84
2023/01/21 08:43:01;;;;;;;59.80;33.70;;;0.00;99.90;;;;;;5051275;28;20176;-83
2023/01/21 08:45:27;;;;;;;59.37;32.40;;;0.00;99.90;;;;;;5075180;28;20256;-82
2023/01/21 08:47:53;;;;;;;60.67;35.07;;;-0.10;99.90;;;;;;5071728;28;20193;-81
2023/01/21 08:50:21;;;;;;;54.77;31.40;;;0.10;99.90;;;;;;5075139;28;20185;-83
2023/01/21 08:52:51;;;;;;;55.27;31.37;;;0.10;99.90;;;;;;5072034;28;20621;-83
2023/01/21 08:55:20;;;;;;;56.13;30.47;;;0.20;99.90;;;;;;5059465;28;20275;-82
2023/01/21 08:57:46;;;;;;;54.63;34.27;;;0.10;99.90;;;;;;5056784;28;20350;-82
2023/01/21 09:00:18;;;;;;;56.93;33.27;;;0.20;99.90;;;;;;5049655;28;20644;-81
2023/01/21 09:02:51;;;;;;;53.40;31.00;;;0.30;99.90;;;;;;5052290;28;20173;-83
2023/01/21 09:05:16;;;;;;;57.33;31.63;;;0.30;99.90;;;;;;5052775;28;20199;-84
2023/01/21 09:07:43;;;;;;;58.93;35.03;;;0.30;99.90;;;;;;5050996;28;20665;-84
2023/01/21 09:10:09;;;;;;;49.23;31.63;;;0.30;99.90;;;;;;5048464;28;20602;-82
2023/01/21 09:12:37;;;;;;;50.43;31.27;;;0.40;99.90;;;;;;5050699;28;20219;-86
2023/01/21 09:15:03;;;;;;;53.97;29.70;;;0.30;99.90;;;;;;5052315;28;20184;-82
2023/01/21 09:17:29;;;;;;;55.77;29.77;;;0.30;99.90;;;;;;5034171;28;20216;-83
2023/01/21 09:19:55;;;;;;;49.03;27.97;;;0.20;99.90;;;;;;5051100;28;20223;-85
2023/01/21 09:22:20;;;;;;;50.80;28.60;;;0.20;99.90;;;;;;5051432;28;20180;-82
2023/01/21 09:24:46;;;;;;;52.83;31.17;;;0.10;99.90;;;;;;5053768;28;20537;-83
2023/01/21 09:27:12;;;;;;;59.87;33.23;;;0.30;99.90;;;;;;5060717;28;20176;-85
2023/01/21 09:29:37;;;;;;;54.30;33.03;;;0.20;99.90;;;;;;5057081;28;20260;-82
2023/01/21 09:32:09;;;;;;;57.27;33.30;;;0.40;99.90;;;;;;5052393;28;20184;-81
2023/01/21 09:34:35;;;;;;;56.77;32.33;;;0.40;99.90;;;;;;5053020;28;20168;-82
2023/01/21 09:37:01;;;;;;;55.20;32.27;;;0.40;99.90;;;;;;5052066;28;20579;-81
2023/01/21 09:39:27;;;;;;;51.70;32.00;;;0.40;99.90;;;;;;5052477;28;20191;-82
2023/01/21 09:41:55;;;;;;;56.40;33.13;;;0.50;99.90;;;;;;5072950;28;20168;-82
2023/01/21 09:44:35;;;;;;;52.37;31.90;;;0.60;99.90;;;;;;5055181;28;20185;-83
2023/01/21 09:47:15;;;;;;;50.60;31.33;;;0.60;99.90;;;;;;5051796;28;20208;-83
2023/01/21 09:49:46;;;;;;;52.53;33.17;;;0.70;99.90;;;;;;5049936;28;20242;-83
2023/01/21 09:52:41;;;;;;;48.87;29.00;;;0.80;99.90;;;;;;5047948;28;20180;-83
2023/01/21 09:55:21;;;;;;;56.23;32.00;;;0.80;99.90;;;;;;5050595;28;20207;-83
2023/01/21 09:58:05;;;;;;;50.57;29.40;;;0.80;99.90;;;;;;5049854;28;20621;-82
2023/01/21 10:00:50;;;;;;;53.37;29.60;;;0.80;99.90;;;;;;5050820;28;20280;-83
2023/01/21 10:03:31;;;;;;;44.80;28.23;;;0.80;99.90;;;;;;5061973;28;20211;-81
2023/01/21 10:06:08;;;;;;;49.13;29.00;;;0.90;99.90;;;;;;5060850;28;20193;-83
2023/01/21 10:09:03;;;;;;;51.23;30.00;;;0.90;99.90;;;;;;5061110;28;20204;-82
2023/01/21 10:12:10;;;;;;;48.63;30.03;;;1.00;99.90;;;;;;5064269;28;20216;-82
2023/01/21 10:14:54;;;;;;;50.77;30.17;;;1.00;99.90;;;;;;5061423;28;20170;-81
2023/01/21 10:17:50;;;;;;;50.43;31.10;;;1.10;99.90;;;;;;5051665;28;20250;-83
2023/01/21 10:20:25;;;;;;;48.67;29.83;;;1.20;99.30;;;;;;5057742;28;20191;-82
2023/01/21 10:22:59;;;;;;;47.33;29.87;;;1.20;98.50;;;;;;5072924;28;20183;-83
2023/01/21 10:25:33;;;;;;;49.40;30.37;;;1.40;98.20;;;;;;5057010;28;20195;-83
2023/01/21 10:28:13;;;;;;;44.83;27.63;;;1.40;96.90;;;;;;5037844;28;20272;-83
2023/01/21 10:30:47;;;;;;;43.03;27.90;;;1.40;94.70;;;;;;5050191;28;20187;-82
2023/01/21 10:33:20;;;;;;;46.63;28.90;;;1.60;94.90;;;;;;5052163;28;20206;-83
2023/01/21 10:36:10;;;;;;;46.63;28.70;;;1.40;94.60;;;;;;5055870;28;20578;-82
2023/01/21 10:38:36;;;;;;;45.90;27.83;;;1.50;94.80;;;;;;5052537;28;20349;-82
2023/01/21 10:41:40;;;;;;;44.67;28.33;;;1.60;93.90;;;;;;5054323;28;20622;-83
2023/01/21 10:44:21;;;;;;;43.37;27.00;;;1.60;93.70;;;;;;5037115;28;20187;-82
2023/01/21 10:47:16;;;;;;;45.33;28.47;;;1.60;94.40;;;;;;5054289;28;20177;-82
2023/01/21 10:50:11;;;;;;;46.50;26.63;;;1.50;94.40;;;;;;5002279;28;20222;-83
2023/01/21 10:52:57;;;;;;;49.50;28.47;;;1.70;94.60;;;;;;5073859;28;20181;-82
2023/01/21 10:55:36;;;;;;;43.53;27.80;;;1.80;93.70;;;;;;5075423;28;20204;-83
2023/01/21 10:58:27;;;;;;;42.67;28.47;;;1.80;92.90;;;;;;5059423;28;20205;-82
2023/01/21 11:00:55;;;;;;;43.17;26.77;;;1.80;92.90;;;;;;5057609;28;20180;-82
2023/01/21 11:03:33;;;;;;;46.93;27.40;;;1.70;92.10;;;;;;5056807;28;20641;-81
2023/01/21 11:06:03;;;;;;;44.43;27.93;;;1.60;92.40;;;;;;5051615;28;20177;-86
2023/01/21 11:08:29;;;;;;;43.67;28.17;;;1.60;93.70;;;;;;5035801;28;20253;-83
2023/01/21 11:10:56;;;;;;;43.50;28.60;;;1.80;94.50;;;;;;5054468;28;20286;-83
2023/01/21 11:13:22;;;;;;;43.40;27.87;;;1.80;94.20;;;;;;5056695;28;20180;-81
2023/01/21 11:15:53;;;;;;;49.47;28.57;;;1.90;93.90;;;;;;5050222;28;20173;-83
2023/01/21 11:18:28;;;;;;;42.27;27.30;;;1.90;92.50;;;;;;5063838;28;20207;-81
2023/01/21 11:21:00;;;;;;;43.73;26.77;;;2.00;92.10;;;;;;5057241;28;20366;-82
2023/01/21 11:23:38;;;;;;;43.77;25.47;;;2.00;90.60;;;;;;5056995;28;20559;-82
2023/01/21 11:26:20;;;;;;;45.90;29.23;;;2.00;91.30;;;;;;5056846;28;20681;-84
2023/01/21 11:29:05;;;;;;;42.47;25.53;;;2.10;91.10;;;;;;5044718;28;20176;-84
2023/01/21 11:31:32;;;;;;;44.73;26.27;;;2.10;90.30;;;;;;5058271;28;20168;-84
2023/01/21 11:34:09;;;;;;;41.73;26.77;;;2.00;90.50;;;;;;5067658;28;20187;-84
2023/01/21 11:36:35;;;;;;;41.80;27.53;;;2.10;90.70;;;;;;5065130;28;20259;-84
2023/01/21 11:39:08;;;;;;;40.90;24.20;;;2.10;91.60;;;;;;5074822;28;20212;-81
2023/01/21 11:41:35;;;;;;;38.67;24.60;;;2.10;90.10;;;;;;5048718;28;20168;-82
2023/01/21 11:44:17;;;;;;;37.87;25.33;;;2.20;88.30;;;;;;5060585;28;20569;-83
2023/01/21 11:46:44;;;;;;;46.10;27.37;;;2.20;88.80;;;;;;5065551;28;20164;-86
2023/01/21 11:49:10;;;;;;;44.37;27.50;;;2.20;90.30;;;;;;5068513;28;20172;-84
2023/01/21 11:51:38;;;;;;;37.00;24.67;;;2.40;90.20;;;;;;5075016;28;20193;-88
2023/01/21 11:54:12;;;;;;;39.10;24.03;;;2.40;86.90;;;;;;5069606;28;20267;-83
2023/01/21 11:56:55;;;;;;;40.10;25.37;;;2.40;84.00;;;;;;5070565;28;20208;-85
2023/01/21 11:59:34;;;;;;;39.77;26.73;;;2.40;84.80;;;;;;5067906;28;20169;-85
2023/01/21 12:02:20;;;;;;;41.23;28.13;;;2.50;85.90;;;;;;5060222;28;20203;-82
2023/01/21 12:04:50;;;;;;;43.03;25.07;;;2.60;84.40;;;;;;5056996;28;20193;-82
2023/01/21 12:07:21;;;;;;;35.60;22.93;;;2.50;83.20;;;;;;5055734;28;20189;-81
2023/01/21 12:10:05;;;;;;;41.77;25.20;;;2.50;83.00;;;;;;5057052;28;20188;-83
2023/01/21 12:12:59;;;;;;;37.17;23.53;;;2.60;83.90;;;;;;5057678;28;20204;-80
2023/01/21 12:15:40;;;;;;;35.07;21.80;;;2.60;80.60;;;;;;5056240;28;20200;-81
2023/01/21 12:18:20;;;;;;;41.20;25.93;;;2.70;78.30;;;;;;5056394;28;20240;-82
2023/01/21 12:21:02;;;;;;;36.70;23.20;;;2.70;79.50;;;;;;5058219;28;20165;-81
2023/01/21 12:23:48;;;;;;;38.90;25.40;;;2.80;81.70;;;;;;5050224;28;20180;-82
2023/01/21 12:26:40;;;;;;;39.37;25.03;;;2.70;82.00;;;;;;5058020;28;20179;-81
2023/01/21 12:29:26;;;;;;;37.17;23.83;;;2.80;81.10;;;;;;5057196;28;20169;-82
2023/01/21 12:32:11;;;;;;;41.03;26.60;;;2.80;79.60;;;;;;5052650;28;20184;-82
2023/01/21 12:34:42;;;;;;;42.60;26.10;;;2.70;80.40;;;;;;5038074;28;20653;-80
2023/01/21 12:37:40;;;;;;;44.87;27.50;;;2.60;83.80;;;;;;5061517;28;20214;-80
2023/01/21 12:40:27;;;;;;;39.70;25.53;;;2.50;83.80;;;;;;5054585;28;20217;-84
2023/01/21 12:42:57;;;;;;;43.30;27.40;;;2.50;84.50;;;;;;5048858;28;20173;-82
2023/01/21 12:45:29;;;;;;;41.87;27.20;;;2.50;87.10;;;;;;5041907;28;20184;-85
2023/01/21 12:48:22;;;;;;;44.57;27.57;;;2.50;87.80;;;;;;5039756;28;20170;-83
2023/01/21 12:50:55;;;;;;;42.07;22.90;;;2.40;87.40;;;;;;5037642;28;20162;-82
2023/01/21 12:54:14;;;;;;;48.33;27.60;;;2.30;85.40;;;;;;5037711;28;20174;-81
2023/01/21 12:56:44;;;;;;;55.33;32.50;;;2.00;90.20;;;;;;5033175;28;20201;-82
2023/01/21 12:59:24;;;;;;;48.77;30.80;;;2.10;92.40;;;;;;5037438;28;20260;-83
2023/01/21 13:01:57;;;;;;;51.57;31.23;;;2.10;93.30;;;;;;5035488;28;20579;-83